Terminal Aerodrome Forecast
Issued by NWS Jackson, KY

Home | Current Version | Previous Version | Text Only | Print | Product List | Glossary On
Versions: 1 2 3 4 5 6 7 8 9 10 11 12 13 14 15 16 17 18 19
735
FTUS43 KJKL 191835 AAA
TAFLOZ
TAF AMD
KLOZ 191835Z 1919/2018 26004KT P6SM SCT015 BKN040
     FM200600 VRB03KT 3SM BR SCT004
      TEMPO 2008/2012 1/4SM FG BKN003
     FM201300 VRB05KT P6SM SCT200=

USA.gov is the U.S. government's official web portal to all federal, state and local government web resources and services.